Time;durP1;ratioP1;P1;durP2;ratioP2;P2;SDS_P1;SDS_P2;PMS_P1;PMS_P2;Temp;Humidity;BMP_temperature;BMP_pressure;BME280_temperature;BME280_humidity;BME280_pressure;Samples;Min_cycle;Max_cycle;Signal;HPM_P1;HPM_P2
2021/11/16 00:01:45;;;;;;;45.47;40.90;;;8.40;84.90;;;;;;5006413;28;20986;-74
2021/11/16 00:04:13;;;;;;;45.58;40.70;;;8.40;84.20;;;;;;5008671;28;20229;-73
2021/11/16 00:06:40;;;;;;;46.47;41.67;;;8.40;84.30;;;;;;5007221;28;20237;-73
2021/11/16 00:09:07;;;;;;;45.35;40.67;;;8.30;84.40;;;;;;5008477;28;20198;-72
2021/11/16 00:11:35;;;;;;;43.67;39.42;;;8.30;84.70;;;;;;5008276;28;20252;-72
2021/11/16 00:14:02;;;;;;;45.33;40.58;;;8.40;84.60;;;;;;5009368;28;20596;-73
2021/11/16 00:16:29;;;;;;;45.42;41.08;;;8.40;84.00;;;;;;5009205;28;20319;-73
2021/11/16 00:18:59;;;;;;;46.13;41.38;;;8.40;84.00;;;;;;5007242;28;20198;-71
2021/11/16 00:21:26;;;;;;;45.58;40.70;;;8.40;84.20;;;;;;5002764;28;20202;-72
2021/11/16 00:23:56;;;;;;;44.70;40.13;;;8.30;84.30;;;;;;5005333;28;20821;-72
2021/11/16 00:26:24;;;;;;;44.78;40.45;;;8.30;84.40;;;;;;5006619;28;20209;-71
2021/11/16 00:28:51;;;;;;;46.15;41.35;;;8.40;84.40;;;;;;5012827;28;20194;-72
2021/11/16 00:31:19;;;;;;;45.08;40.78;;;8.30;85.80;;;;;;5007762;28;20194;-70
2021/11/16 00:33:47;;;;;;;45.08;40.22;;;8.30;85.90;;;;;;5007265;28;20223;-71
2021/11/16 00:36:15;;;;;;;46.75;42.25;;;8.30;85.10;;;;;;5006250;28;20893;-71
2021/11/16 00:38:42;;;;;;;48.38;43.45;;;8.30;84.70;;;;;;5015041;28;20198;-71
2021/11/16 00:41:10;;;;;;;48.45;43.20;;;8.30;85.00;;;;;;5006908;28;20202;-73
2021/11/16 00:43:37;;;;;;;46.22;41.63;;;8.30;84.90;;;;;;5005625;28;20218;-74
2021/11/16 00:46:04;;;;;;;47.00;42.35;;;8.40;85.70;;;;;;5005006;28;20201;-73
2021/11/16 00:48:31;;;;;;;47.30;42.55;;;8.30;85.10;;;;;;5008173;28;20205;-74
2021/11/16 00:51:01;;;;;;;48.25;43.28;;;8.30;85.00;;;;;;5007427;28;20260;-74
2021/11/16 00:53:32;;;;;;;47.53;42.83;;;8.30;84.90;;;;;;5007260;28;20576;-76
2021/11/16 00:56:00;;;;;;;47.33;42.28;;;8.40;84.90;;;;;;5012052;28;20234;-73
2021/11/16 00:58:27;;;;;;;44.72;40.65;;;8.40;84.70;;;;;;5009708;28;20236;-73
2021/11/16 01:00:54;;;;;;;48.13;43.20;;;8.40;86.30;;;;;;5009914;28;20198;-73
2021/11/16 01:03:23;;;;;;;44.57;39.93;;;8.30;86.10;;;;;;5006955;28;20221;-73
2021/11/16 01:05:50;;;;;;;46.95;42.28;;;8.30;85.50;;;;;;5006520;28;20541;-73
2021/11/16 01:08:17;;;;;;;44.85;40.50;;;8.30;85.30;;;;;;5014704;28;20284;-73
2021/11/16 01:10:46;;;;;;;46.33;41.30;;;8.40;85.00;;;;;;5003781;28;20198;-73
2021/11/16 01:13:20;;;;;;;48.03;43.00;;;8.40;84.50;;;;;;5006263;28;20480;-73
2021/11/16 01:15:48;;;;;;;43.88;39.80;;;8.50;84.00;;;;;;5005756;28;20484;-73
2021/11/16 01:18:16;;;;;;;45.58;40.90;;;8.50;84.00;;;;;;5008305;28;20205;-73
2021/11/16 01:20:44;;;;;;;43.53;39.47;;;8.40;84.40;;;;;;5009314;28;20289;-72
2021/11/16 01:23:14;;;;;;;44.15;39.80;;;8.30;84.30;;;;;;5005650;28;20232;-73
2021/11/16 01:25:44;;;;;;;40.95;36.78;;;8.30;84.50;;;;;;5006994;28;20217;-73
2021/11/16 01:28:17;;;;;;;43.53;39.47;;;8.40;83.90;;;;;;5008245;28;20578;-73
2021/11/16 01:30:47;;;;;;;44.30;40.13;;;8.40;84.00;;;;;;5012557;28;20469;-73
2021/11/16 01:33:18;;;;;;;45.25;40.83;;;8.30;84.40;;;;;;5011994;28;20309;-74
2021/11/16 01:35:46;;;;;;;44.47;40.03;;;8.30;86.10;;;;;;5005715;28;20315;-74
2021/11/16 01:38:16;;;;;;;43.85;39.55;;;8.30;85.30;;;;;;5004200;28;20194;-75
2021/11/16 01:40:45;;;;;;;46.45;41.85;;;8.40;84.40;;;;;;5002462;28;20201;-73
2021/11/16 01:43:14;;;;;;;44.05;39.88;;;8.40;83.80;;;;;;5011291;28;20210;-73
2021/11/16 01:45:42;;;;;;;45.97;41.33;;;8.40;83.90;;;;;;5007629;28;20198;-73
2021/11/16 01:48:10;;;;;;;46.38;41.58;;;8.40;83.70;;;;;;5005989;28;20225;-73
2021/11/16 01:50:39;;;;;;;43.55;39.40;;;8.40;83.90;;;;;;5009958;28;20260;-73
2021/11/16 01:53:06;;;;;;;44.75;40.00;;;8.40;84.00;;;;;;5004360;28;20307;-73
2021/11/16 01:55:33;;;;;;;43.78;39.65;;;8.40;83.90;;;;;;5007416;28;20221;-73
2021/11/16 01:58:00;;;;;;;42.55;38.42;;;8.40;83.90;;;;;;5008957;28;20205;-73
2021/11/16 02:00:33;;;;;;;45.55;41.45;;;8.40;83.90;;;;;;5007295;28;20225;-73
2021/11/16 02:03:01;;;;;;;44.38;40.00;;;8.40;84.00;;;;;;5006636;28;20228;-73
2021/11/16 02:05:39;;;;;;;44.20;39.53;;;8.30;85.90;;;;;;5003921;28;20220;-73
2021/11/16 02:08:08;;;;;;;44.22;39.47;;;8.20;86.00;;;;;;5007400;28;20740;-73
2021/11/16 02:10:35;;;;;;;41.83;37.75;;;8.20;85.60;;;;;;5014280;28;20233;-73
2021/11/16 02:13:03;;;;;;;43.15;38.97;;;8.20;85.00;;;;;;5010574;28;20217;-73
2021/11/16 02:15:32;;;;;;;41.78;37.67;;;8.30;84.40;;;;;;5005604;28;20224;-73
2021/11/16 02:17:59;;;;;;;42.40;38.15;;;8.30;84.40;;;;;;5005204;28;20210;-73
2021/11/16 02:20:31;;;;;;;45.15;40.92;;;8.30;84.40;;;;;;5005551;28;20217;-73
2021/11/16 02:22:58;;;;;;;42.20;38.10;;;8.30;84.60;;;;;;5004399;28;20225;-73
2021/11/16 02:25:25;;;;;;;45.45;40.88;;;8.40;84.50;;;;;;5002308;28;20206;-73
2021/11/16 02:27:52;;;;;;;43.35;39.15;;;8.30;84.40;;;;;;5000304;28;20197;-73
2021/11/16 02:30:23;;;;;;;43.75;39.85;;;8.30;84.60;;;;;;5004763;28;20198;-73
2021/11/16 02:32:50;;;;;;;42.90;38.60;;;8.30;84.50;;;;;;5002950;28;20245;-73
2021/11/16 02:35:19;;;;;;;43.55;39.42;;;8.30;84.60;;;;;;5006562;28;20194;-75
2021/11/16 02:37:48;;;;;;;44.72;40.20;;;8.30;84.80;;;;;;5005386;28;20209;-73
2021/11/16 02:40:18;;;;;;;44.53;39.90;;;8.30;84.80;;;;;;5003712;28;20209;-73
2021/11/16 02:42:46;;;;;;;43.05;38.95;;;8.30;84.80;;;;;;5003492;28;20220;-73
2021/11/16 02:45:14;;;;;;;40.80;36.88;;;8.20;84.90;;;;;;5011795;28;20579;-73
2021/11/16 02:47:42;;;;;;;44.23;39.63;;;8.20;85.10;;;;;;5004369;28;20198;-71
2021/11/16 02:50:09;;;;;;;43.35;39.13;;;8.30;84.60;;;;;;5010244;28;20465;-71
2021/11/16 02:52:37;;;;;;;42.08;37.83;;;8.30;84.40;;;;;;5006978;28;20756;-71
2021/11/16 02:55:07;;;;;;;43.20;39.05;;;8.30;84.90;;;;;;5008298;28;20209;-71
2021/11/16 02:57:35;;;;;;;44.63;40.13;;;8.30;84.60;;;;;;5006337;28;20222;-71
2021/11/16 03:00:04;;;;;;;43.38;39.17;;;8.30;83.90;;;;;;5006214;28;20289;-71
2021/11/16 03:02:31;;;;;;;44.70;40.17;;;8.20;84.30;;;;;;5006647;28;20304;-71
2021/11/16 03:04:58;;;;;;;42.72;38.58;;;8.30;84.00;;;;;;5009828;28;20218;-71
2021/11/16 03:07:32;;;;;;;42.58;38.42;;;8.30;84.30;;;;;;5016439;28;20280;-71
2021/11/16 03:10:00;;;;;;;41.97;37.97;;;8.20;84.60;;;;;;5009833;28;20263;-71
2021/11/16 03:12:30;;;;;;;43.42;39.10;;;8.20;84.40;;;;;;5008142;28;20214;-71
2021/11/16 03:14:58;;;;;;;45.92;41.33;;;8.20;84.60;;;;;;5009970;28;20202;-71
2021/11/16 03:17:26;;;;;;;44.50;40.28;;;8.20;84.60;;;;;;5003999;28;20226;-71
2021/11/16 03:19:54;;;;;;;44.70;40.20;;;8.30;83.90;;;;;;5013993;28;20198;-71
2021/11/16 03:22:26;;;;;;;44.42;40.17;;;8.40;83.90;;;;;;5007822;28;20303;-71
2021/11/16 03:24:56;;;;;;;42.55;38.35;;;8.20;87.00;;;;;;5008258;28;20205;-71
2021/11/16 03:27:29;;;;;;;45.10;40.38;;;8.20;86.70;;;;;;5008541;28;20230;-71
2021/11/16 03:29:59;;;;;;;45.40;41.00;;;8.20;84.90;;;;;;5007479;28;20200;-71
2021/11/16 03:32:31;;;;;;;43.00;38.90;;;8.30;84.30;;;;;;5005910;28;21523;-71
2021/11/16 03:34:59;;;;;;;44.13;39.97;;;8.20;84.10;;;;;;5009727;28;21010;-71
2021/11/16 03:37:34;;;;;;;44.80;40.28;;;8.10;85.00;;;;;;5007885;28;20217;-71
2021/11/16 03:40:01;;;;;;;44.47;39.80;;;8.10;85.30;;;;;;5009448;28;20198;-71
2021/11/16 03:42:28;;;;;;;42.17;38.05;;;8.00;85.50;;;;;;5009774;28;20263;-71
2021/11/16 03:44:57;;;;;;;43.55;39.15;;;8.10;85.00;;;;;;5010137;28;20206;-71
2021/11/16 03:47:24;;;;;;;43.88;39.70;;;8.10;84.90;;;;;;5008535;28;20190;-71
2021/11/16 03:49:51;;;;;;;43.97;39.55;;;8.10;84.60;;;;;;5007715;28;20198;-71
2021/11/16 03:52:22;;;;;;;44.67;40.20;;;8.10;84.90;;;;;;5006548;28;20256;-71
2021/11/16 03:54:49;;;;;;;42.92;38.72;;;8.20;84.30;;;;;;5005731;28;20198;-71
2021/11/16 03:57:16;;;;;;;42.20;38.10;;;8.20;85.30;;;;;;5008294;28;20210;-72
2021/11/16 03:59:43;;;;;;;42.55;38.28;;;8.20;85.20;;;;;;5007896;28;20285;-71
2021/11/16 04:02:11;;;;;;;46.50;41.72;;;8.20;84.70;;;;;;5008514;28;20197;-71
2021/11/16 04:04:41;;;;;;;43.35;38.85;;;8.20;84.60;;;;;;5008267;28;20596;-73
2021/11/16 04:07:08;;;;;;;45.33;40.88;;;8.20;84.50;;;;;;5016488;28;20200;-73
2021/11/16 04:09:34;;;;;;;41.80;37.60;;;8.10;84.80;;;;;;5010031;28;20194;-73
2021/11/16 04:12:01;;;;;;;44.15;39.63;;;8.10;85.10;;;;;;5009395;28;20198;-73
2021/11/16 04:14:28;;;;;;;43.42;39.08;;;8.00;85.60;;;;;;5007487;28;20221;-73
2021/11/16 04:16:55;;;;;;;42.50;38.38;;;8.10;85.00;;;;;;5007609;28;20226;-73
2021/11/16 04:19:23;;;;;;;44.22;39.75;;;8.20;84.60;;;;;;5006297;28;20198;-73
2021/11/16 04:21:50;;;;;;;42.63;38.58;;;8.10;84.90;;;;;;5006053;28;20697;-73
2021/11/16 04:24:17;;;;;;;44.03;39.50;;;8.00;85.20;;;;;;5007296;28;20213;-75
2021/11/16 04:26:44;;;;;;;41.97;38.00;;;8.00;86.10;;;;;;5006865;28;20563;-73
2021/11/16 04:29:11;;;;;;;44.80;40.33;;;8.00;85.40;;;;;;5009591;28;20197;-73
2021/11/16 04:31:38;;;;;;;43.92;39.42;;;7.90;85.70;;;;;;5007954;28;20212;-73
2021/11/16 04:34:06;;;;;;;44.65;40.30;;;8.00;85.20;;;;;;5008564;28;20308;-75
2021/11/16 04:36:36;;;;;;;45.03;40.55;;;8.10;84.90;;;;;;5006232;28;20237;-73
2021/11/16 04:39:04;;;;;;;44.28;39.63;;;8.00;85.30;;;;;;5011237;28;20289;-73
2021/11/16 04:41:31;;;;;;;45.95;41.05;;;8.10;85.10;;;;;;5009448;28;20194;-73
2021/11/16 04:44:00;;;;;;;43.63;39.15;;;8.00;85.00;;;;;;5004917;28;20220;-73
2021/11/16 04:46:27;;;;;;;46.35;41.78;;;8.10;85.20;;;;;;5005393;28;20285;-73
2021/11/16 04:49:00;;;;;;;46.53;41.70;;;8.00;85.50;;;;;;5007710;28;20221;-73
2021/11/16 04:51:51;;;;;;;43.63;39.17;;;8.00;85.20;;;;;;5007316;28;20233;-73
2021/11/16 05:02:38;;;;;;;43.78;39.58;;;8.10;85.20;;;;;;5004329;28;20216;-73
2021/11/16 05:05:09;;;;;;;42.42;37.95;;;8.10;84.70;;;;;;5007614;28;20206;-72
2021/11/16 05:07:37;;;;;;;43.55;39.30;;;8.00;85.00;;;;;;5006086;28;20198;-76
2021/11/16 05:10:07;;;;;;;43.95;39.47;;;8.00;84.80;;;;;;5009610;28;20208;-73
2021/11/16 05:12:34;;;;;;;42.30;37.92;;;8.00;84.90;;;;;;5004126;28;20224;-74
2021/11/16 05:15:05;;;;;;;43.67;39.47;;;8.00;84.80;;;;;;5007617;28;20256;-73
2021/11/16 05:17:33;;;;;;;46.72;42.08;;;8.10;84.80;;;;;;5006454;28;20218;-72
2021/11/16 05:19:59;;;;;;;45.65;40.55;;;8.10;84.50;;;;;;5010814;28;20202;-73
2021/11/16 05:22:27;;;;;;;43.75;39.35;;;8.00;84.70;;;;;;5011704;28;20751;-73
2021/11/16 05:24:54;;;;;;;43.03;38.53;;;8.10;84.80;;;;;;5006565;28;20197;-72
2021/11/16 05:27:22;;;;;;;44.30;39.67;;;8.10;84.80;;;;;;5006712;28;20281;-74
2021/11/16 05:29:49;;;;;;;44.65;40.05;;;8.00;84.80;;;;;;5007501;28;20561;-73
2021/11/16 05:32:16;;;;;;;42.17;37.95;;;8.00;85.20;;;;;;5007723;28;20421;-73
2021/11/16 05:34:43;;;;;;;43.00;38.33;;;8.00;84.70;;;;;;5013971;28;20204;-74
2021/11/16 05:37:10;;;;;;;46.05;41.60;;;8.10;84.70;;;;;;5006598;28;20228;-73
2021/11/16 05:39:37;;;;;;;44.28;38.90;;;8.10;84.80;;;;;;5010543;28;20198;-73
2021/11/16 05:42:05;;;;;;;43.30;39.13;;;8.00;84.80;;;;;;5006088;28;20193;-73
2021/11/16 05:44:33;;;;;;;44.17;39.88;;;8.00;85.30;;;;;;5010312;28;20726;-73
2021/11/16 05:47:01;;;;;;;44.38;39.97;;;7.90;85.90;;;;;;5002986;28;20194;-73
2021/11/16 05:49:31;;;;;;;45.50;41.22;;;7.90;85.80;;;;;;5008409;28;20307;-73
2021/11/16 05:52:00;;;;;;;44.63;40.15;;;7.80;85.90;;;;;;5007068;28;20724;-73
2021/11/16 05:54:31;;;;;;;44.00;39.50;;;7.80;85.60;;;;;;5008671;28;20221;-73
2021/11/16 05:56:58;;;;;;;42.70;38.50;;;8.00;85.50;;;;;;5011606;28;20680;-75
2021/11/16 05:59:27;;;;;;;44.53;40.28;;;8.00;85.30;;;;;;5007889;28;20229;-74
2021/11/16 06:01:55;;;;;;;43.63;39.13;;;7.80;85.60;;;;;;5007420;28;20198;-74
2021/11/16 06:04:22;;;;;;;43.80;39.55;;;7.80;85.70;;;;;;5006339;28;20336;-73
2021/11/16 06:06:56;;;;;;;43.90;39.58;;;7.80;85.90;;;;;;5000932;28;20204;-73
2021/11/16 06:09:26;;;;;;;44.10;39.70;;;7.80;86.00;;;;;;4996246;28;20252;-74
2021/11/16 06:11:54;;;;;;;42.72;38.42;;;7.90;85.70;;;;;;5009852;28;20201;-74
2021/11/16 06:14:21;;;;;;;42.95;38.63;;;7.80;85.80;;;;;;5017105;28;20218;-71
2021/11/16 06:16:49;;;;;;;42.90;38.70;;;7.80;85.80;;;;;;5006403;28;20247;-72
2021/11/16 06:19:19;;;;;;;43.72;39.17;;;7.80;86.80;;;;;;5007629;28;20285;-71
2021/11/16 06:21:47;;;;;;;41.22;36.92;;;7.80;86.60;;;;;;5003289;28;20293;-72
2021/11/16 06:24:14;;;;;;;43.42;39.33;;;7.80;86.20;;;;;;5010042;28;20218;-71
2021/11/16 06:26:41;;;;;;;42.75;38.72;;;7.70;86.70;;;;;;5006170;28;20189;-73
2021/11/16 06:29:09;;;;;;;46.22;41.80;;;7.80;86.40;;;;;;5016673;28;20201;-73
2021/11/16 06:31:37;;;;;;;41.95;37.75;;;7.70;86.50;;;;;;5006767;28;20202;-75
2021/11/16 06:34:05;;;;;;;41.17;37.45;;;7.70;86.40;;;;;;5007986;28;20225;-73
2021/11/16 06:36:36;;;;;;;43.83;39.58;;;7.70;86.40;;;;;;5013550;28;20600;-72
2021/11/16 06:39:05;;;;;;;42.08;38.30;;;7.70;86.50;;;;;;5014095;28;20205;-73
2021/11/16 06:41:32;;;;;;;41.58;37.70;;;7.70;86.60;;;;;;5004712;28;20289;-73
2021/11/16 06:43:59;;;;;;;45.05;40.65;;;7.70;86.00;;;;;;5011041;28;20497;-74
2021/11/16 06:46:30;;;;;;;41.67;37.85;;;7.80;85.90;;;;;;5013924;28;20282;-74
2021/11/16 06:48:57;;;;;;;40.92;37.05;;;7.80;85.80;;;;;;5013764;28;20233;-74
2021/11/16 06:51:24;;;;;;;42.60;38.85;;;7.80;85.50;;;;;;5010994;28;20683;-74
2021/11/16 06:53:53;;;;;;;40.30;36.60;;;7.70;86.20;;;;;;5019835;28;20242;-73
2021/11/16 06:56:25;;;;;;;40.03;36.33;;;7.70;85.90;;;;;;5019047;28;20198;-73
2021/11/16 06:58:52;;;;;;;41.55;37.65;;;7.80;84.30;;;;;;5018763;28;20216;-73
2021/11/16 07:01:19;;;;;;;38.38;34.97;;;7.70;84.70;;;;;;5009886;28;20595;-73
2021/11/16 07:03:50;;;;;;;39.47;35.95;;;7.80;84.70;;;;;;5006960;28;20217;-72
2021/11/16 07:06:18;;;;;;;41.38;37.47;;;7.80;84.60;;;;;;5006476;28;20224;-73
2021/11/16 07:08:46;;;;;;;39.20;35.70;;;7.80;84.30;;;;;;5008550;28;20217;-72
2021/11/16 07:11:17;;;;;;;41.42;37.63;;;7.80;84.50;;;;;;5008197;28;20209;-72
2021/11/16 07:14:00;;;;;;;38.33;34.90;;;7.90;84.30;;;;;;5017334;28;20305;-72
2021/11/16 07:16:29;;;;;;;40.58;37.05;;;7.90;84.00;;;;;;5009451;28;20575;-73
2021/11/16 07:18:57;;;;;;;42.08;38.33;;;8.00;83.70;;;;;;5014247;28;20221;-71
2021/11/16 07:21:26;;;;;;;39.50;35.85;;;7.90;83.60;;;;;;5006652;28;20644;-72
2021/11/16 07:24:05;;;;;;;38.78;35.35;;;7.90;84.20;;;;;;5005570;28;20218;-72
2021/11/16 07:26:39;;;;;;;40.97;37.35;;;7.90;84.10;;;;;;5010305;28;20297;-72
2021/11/16 07:29:07;;;;;;;40.08;36.42;;;7.90;83.70;;;;;;5009436;28;20291;-72
2021/11/16 07:31:36;;;;;;;41.20;37.50;;;8.00;83.70;;;;;;5002574;28;20198;-73
2021/11/16 07:34:10;;;;;;;41.15;37.35;;;8.00;83.50;;;;;;5004768;28;20232;-72
2021/11/16 07:36:37;;;;;;;40.65;37.05;;;8.00;82.90;;;;;;5005053;28;20205;-72
2021/11/16 07:39:07;;;;;;;40.45;36.88;;;8.00;82.80;;;;;;5007430;28;20221;-71
2021/11/16 07:41:35;;;;;;;38.63;35.42;;;8.00;82.70;;;;;;5006762;28;20202;-71
2021/11/16 07:44:13;;;;;;;42.47;38.78;;;8.00;82.80;;;;;;5008980;28;20222;-71
2021/11/16 07:46:50;;;;;;;41.10;37.55;;;8.10;82.40;;;;;;5008640;28;20194;-72
2021/11/16 07:49:17;;;;;;;40.83;37.30;;;8.00;82.60;;;;;;5010614;28;20212;-71
2021/11/16 07:51:44;;;;;;;40.30;37.00;;;8.10;82.70;;;;;;5005372;28;20198;-71
2021/11/16 07:54:11;;;;;;;38.88;35.63;;;8.10;82.00;;;;;;5008911;28;20228;-72
2021/11/16 07:56:39;;;;;;;37.67;34.45;;;8.00;82.30;;;;;;5008765;28;20285;-71
2021/11/16 07:59:06;;;;;;;37.38;34.10;;;8.10;84.40;;;;;;5009393;28;20221;-71
2021/11/16 08:01:39;;;;;;;39.65;35.95;;;8.20;82.10;;;;;;5003961;28;20201;-72
2021/11/16 08:04:17;;;;;;;39.30;35.83;;;8.30;81.30;;;;;;5006108;28;20229;-71
2021/11/16 08:06:55;;;;;;;42.38;38.67;;;8.30;81.20;;;;;;5007478;28;20201;-72
2021/11/16 08:09:27;;;;;;;39.58;35.65;;;8.40;81.30;;;;;;5005687;28;20230;-72
2021/11/16 08:12:06;;;;;;;36.47;33.15;;;8.40;81.00;;;;;;5008152;28;20696;-72
2021/11/16 08:14:35;;;;;;;39.83;36.28;;;8.50;80.90;;;;;;5008509;28;20198;-73
2021/11/16 08:17:06;;;;;;;43.15;39.63;;;8.50;80.50;;;;;;5003487;28;20385;-71
2021/11/16 08:19:35;;;;;;;40.17;36.83;;;8.60;80.10;;;;;;5008450;28;23114;-72
2021/11/16 08:22:06;;;;;;;38.58;35.05;;;8.60;80.60;;;;;;5008875;28;20211;-71
2021/11/16 08:24:37;;;;;;;42.15;38.25;;;8.50;80.70;;;;;;5009842;28;20725;-71
2021/11/16 08:27:16;;;;;;;41.22;37.53;;;8.60;80.60;;;;;;5006398;28;20297;-71
2021/11/16 08:29:46;;;;;;;42.50;38.78;;;8.70;80.00;;;;;;5005150;28;20276;-71
2021/11/16 08:32:19;;;;;;;42.10;38.40;;;8.60;79.80;;;;;;5009805;28;20197;-74
2021/11/16 08:34:49;;;;;;;41.97;38.20;;;8.50;80.30;;;;;;5005634;28;20286;-74
2021/11/16 08:37:17;;;;;;;42.97;38.88;;;8.50;80.80;;;;;;5008668;28;20317;-73
2021/11/16 08:39:46;;;;;;;45.45;41.05;;;8.60;80.50;;;;;;5015976;28;20667;-75
2021/11/16 08:42:21;;;;;;;43.20;38.95;;;8.70;80.10;;;;;;5007861;28;20232;-77
2021/11/16 08:44:53;;;;;;;44.00;39.63;;;8.70;80.10;;;;;;5004388;28;20229;-73
2021/11/16 08:47:21;;;;;;;45.50;41.10;;;8.60;81.20;;;;;;5007354;28;20283;-79
2021/11/16 08:49:48;;;;;;;42.03;38.17;;;8.60;82.40;;;;;;5005146;28;20209;-74
2021/11/16 08:52:17;;;;;;;43.10;38.85;;;8.50;82.70;;;;;;5000753;28;20207;-74
2021/11/16 08:54:58;;;;;;;45.67;41.58;;;8.60;81.00;;;;;;5008175;28;20277;-74
2021/11/16 08:57:28;;;;;;;41.50;37.72;;;8.50;80.90;;;;;;5005505;28;20656;-74
2021/11/16 08:59:56;;;;;;;42.10;38.03;;;8.50;80.90;;;;;;5012102;28;20197;-77
2021/11/16 09:02:26;;;;;;;43.78;39.55;;;8.60;80.60;;;;;;5002231;28;20250;-70
2021/11/16 09:04:54;;;;;;;42.30;38.40;;;8.50;80.90;;;;;;5000627;28;20564;-71
2021/11/16 09:07:26;;;;;;;43.13;39.22;;;8.50;81.10;;;;;;5000581;28;20293;-71
2021/11/16 09:10:00;;;;;;;42.72;38.80;;;8.60;81.00;;;;;;5007757;28;20206;-71
2021/11/16 09:12:43;;;;;;;43.95;39.67;;;8.50;80.90;;;;;;5002962;28;20293;-71
2021/11/16 09:15:12;;;;;;;43.75;39.85;;;8.60;80.90;;;;;;5008528;28;20212;-71
2021/11/16 09:17:41;;;;;;;41.40;37.83;;;8.60;80.60;;;;;;5008966;28;20746;-71
2021/11/16 09:20:24;;;;;;;39.53;36.13;;;8.50;80.80;;;;;;5008473;28;20201;-72
2021/11/16 09:22:53;;;;;;;39.55;36.15;;;8.60;82.00;;;;;;5005658;28;20857;-70
2021/11/16 09:25:28;;;;;;;39.30;35.92;;;8.60;80.60;;;;;;5011153;28;20276;-71
2021/11/16 09:28:10;;;;;;;37.00;33.90;;;8.50;80.10;;;;;;5007758;28;20189;-71
2021/11/16 09:30:41;;;;;;;39.47;35.95;;;8.40;80.00;;;;;;5003655;28;20566;-70
2021/11/16 09:33:11;;;;;;;34.05;31.25;;;8.40;81.00;;;;;;5008317;28;20221;-71
2021/11/16 09:35:53;;;;;;;35.05;32.13;;;8.40;82.00;;;;;;5019391;28;20207;-71
2021/11/16 09:38:44;;;;;;;34.33;31.13;;;8.40;81.40;;;;;;5006909;28;20213;-71
2021/11/16 09:41:14;;;;;;;33.30;30.88;;;8.60;79.90;;;;;;5006014;28;20264;-71
2021/11/16 09:43:43;;;;;;;35.00;32.40;;;8.50;79.50;;;;;;5010606;28;20236;-71
2021/11/16 09:46:12;;;;;;;35.75;33.05;;;8.60;78.30;;;;;;5002204;28;20201;-70
2021/11/16 09:48:40;;;;;;;34.17;31.45;;;8.50;78.20;;;;;;5012571;28;20680;-70
2021/11/16 09:51:14;;;;;;;32.13;29.63;;;8.40;79.90;;;;;;5005718;28;20206;-71
2021/11/16 09:53:41;;;;;;;35.08;31.90;;;8.50;80.70;;;;;;5007897;28;20605;-71
2021/11/16 09:56:18;;;;;;;34.42;31.90;;;8.40;79.60;;;;;;5006910;28;20205;-71
2021/11/16 09:58:47;;;;;;;34.40;31.83;;;8.40;79.30;;;;;;5009525;28;20240;-71
2021/11/16 10:01:22;;;;;;;33.22;30.52;;;8.50;79.00;;;;;;5014875;28;20205;-71
2021/11/16 10:03:52;;;;;;;33.63;31.02;;;8.40;78.60;;;;;;5012625;28;20333;-71
2021/11/16 10:06:18;;;;;;;33.60;31.10;;;8.30;79.60;;;;;;5010400;28;20248;-70
2021/11/16 10:08:45;;;;;;;32.67;29.88;;;8.20;79.40;;;;;;5004372;28;20762;-70
2021/11/16 10:11:13;;;;;;;34.25;31.55;;;8.00;79.60;;;;;;5009710;28;20289;-72
2021/11/16 10:13:40;;;;;;;33.30;30.60;;;7.90;80.40;;;;;;5006279;28;20232;-70
2021/11/16 10:16:08;;;;;;;34.90;32.47;;;7.90;80.40;;;;;;5008604;28;20631;-71
2021/11/16 10:18:38;;;;;;;35.80;32.80;;;7.90;80.30;;;;;;5011742;28;20249;-72
2021/11/16 10:21:07;;;;;;;33.28;30.55;;;8.00;80.10;;;;;;5010109;28;20221;-71
2021/11/16 10:23:36;;;;;;;34.75;31.55;;;8.10;80.00;;;;;;5014433;28;20226;-73
2021/11/16 10:26:05;;;;;;;32.67;30.05;;;7.90;80.50;;;;;;5014337;28;20225;-71
2021/11/16 10:28:36;;;;;;;31.80;29.23;;;7.80;81.50;;;;;;5009750;28;20202;-72
2021/11/16 10:31:04;;;;;;;32.55;30.15;;;7.90;80.90;;;;;;5013248;28;20284;-72
2021/11/16 10:33:35;;;;;;;31.02;28.83;;;8.00;80.60;;;;;;5013399;28;20221;-72
2021/11/16 10:36:05;;;;;;;34.42;31.95;;;8.10;80.30;;;;;;5018583;28;20213;-71
2021/11/16 10:38:34;;;;;;;27.98;25.88;;;8.20;79.70;;;;;;5011607;28;20644;-71
2021/11/16 10:41:04;;;;;;;31.15;28.77;;;8.20;80.30;;;;;;5009443;28;20213;-71
2021/11/16 10:43:35;;;;;;;30.40;28.30;;;8.30;81.50;;;;;;5012021;28;20229;-71
2021/11/16 10:46:05;;;;;;;32.72;30.33;;;8.30;80.50;;;;;;5008551;28;20211;-72
2021/11/16 10:48:35;;;;;;;30.50;28.30;;;8.30;79.00;;;;;;5007223;28;20560;-71
2021/11/16 10:51:06;;;;;;;31.50;28.90;;;8.30;79.20;;;;;;5007252;28;20197;-71
2021/11/16 10:53:34;;;;;;;32.40;29.90;;;8.30;79.30;;;;;;5005733;28;20225;-71
2021/11/16 10:56:03;;;;;;;30.85;28.55;;;8.40;80.00;;;;;;5009639;28;20213;-71
2021/11/16 10:58:35;;;;;;;32.40;30.00;;;8.40;79.80;;;;;;5009923;28;20309;-71
2021/11/16 11:01:07;;;;;;;30.75;28.45;;;8.40;79.50;;;;;;5008214;28;20596;-72
2021/11/16 11:03:38;;;;;;;30.98;28.67;;;8.50;79.10;;;;;;5011060;28;20763;-71
2021/11/16 11:06:09;;;;;;;30.80;28.55;;;8.50;79.00;;;;;;5009348;28;20197;-72
2021/11/16 11:08:41;;;;;;;31.98;29.58;;;8.40;79.10;;;;;;5004543;28;20216;-72
2021/11/16 11:11:16;;;;;;;31.40;29.17;;;8.30;78.60;;;;;;5009434;28;20202;-72
2021/11/16 11:13:46;;;;;;;30.40;28.30;;;8.20;79.00;;;;;;5004383;28;20217;-71
2021/11/16 11:16:15;;;;;;;32.50;30.15;;;8.10;79.20;;;;;;5006884;28;20267;-71
2021/11/16 11:18:46;;;;;;;30.67;28.45;;;8.20;79.30;;;;;;5009063;28;20217;-72
2021/11/16 11:21:32;;;;;;;32.83;30.33;;;8.30;79.60;;;;;;5005004;28;20196;-72
2021/11/16 11:24:05;;;;;;;32.20;29.90;;;8.40;79.40;;;;;;5012850;28;20729;-75
2021/11/16 11:26:42;;;;;;;32.50;29.80;;;8.50;79.80;;;;;;5010003;28;20199;-74
2021/11/16 11:29:24;;;;;;;32.63;29.73;;;8.50;79.50;;;;;;5015698;28;20205;-76
2021/11/16 11:31:59;;;;;;;33.60;30.88;;;8.60;83.40;;;;;;5012914;28;20798;-74
2021/11/16 11:34:37;;;;;;;32.03;29.60;;;8.60;81.20;;;;;;5014153;28;20263;-74
2021/11/16 11:37:07;;;;;;;32.35;29.90;;;8.60;80.10;;;;;;5015991;28;20201;-73
2021/11/16 11:39:36;;;;;;;30.85;28.75;;;8.60;79.30;;;;;;5012730;28;20309;-74
2021/11/16 11:42:05;;;;;;;30.08;27.88;;;8.70;78.90;;;;;;5008398;28;20198;-74
2021/11/16 11:44:41;;;;;;;31.60;29.25;;;8.80;78.60;;;;;;5011331;28;20214;-76
2021/11/16 11:47:09;;;;;;;33.65;31.15;;;8.90;78.50;;;;;;5009789;28;20276;-80
2021/11/16 11:49:41;;;;;;;32.03;29.83;;;8.80;78.80;;;;;;5006695;28;20547;-76
2021/11/16 11:52:08;;;;;;;31.15;28.88;;;8.70;78.50;;;;;;5018041;28;20197;-74
2021/11/16 11:54:35;;;;;;;31.63;29.42;;;8.70;79.60;;;;;;5010574;28;20198;-75
2021/11/16 11:57:02;;;;;;;30.20;28.10;;;8.80;78.80;;;;;;5008956;28;20208;-74
2021/11/16 11:59:29;;;;;;;31.77;29.52;;;8.80;80.00;;;;;;5021354;28;20306;-74
2021/11/16 12:01:56;;;;;;;31.23;29.13;;;8.90;79.30;;;;;;5014665;28;20204;-74
2021/11/16 12:04:23;;;;;;;30.50;28.27;;;8.80;80.40;;;;;;5013234;28;20214;-74
2021/11/16 12:06:55;;;;;;;28.23;26.33;;;8.90;79.50;;;;;;5004760;28;20198;-71
2021/11/16 12:09:23;;;;;;;31.92;29.83;;;8.90;78.40;;;;;;5011869;28;20199;-73
2021/11/16 12:11:50;;;;;;;30.48;28.48;;;8.90;78.10;;;;;;5006062;28;20279;-72
2021/11/16 12:14:33;;;;;;;29.70;27.80;;;8.90;77.50;;;;;;5004070;28;20222;-71
2021/11/16 12:17:04;;;;;;;30.85;28.67;;;8.70;79.40;;;;;;5007323;28;20205;-72
2021/11/16 12:19:43;;;;;;;30.10;27.90;;;8.60;80.40;;;;;;5009116;28;20225;-72
2021/11/16 12:22:23;;;;;;;30.83;28.73;;;8.70;79.60;;;;;;5009400;28;20543;-72
2021/11/16 12:24:55;;;;;;;28.33;26.00;;;8.70;78.70;;;;;;5012914;28;20734;-72
2021/11/16 12:27:28;;;;;;;30.20;28.20;;;8.80;77.80;;;;;;5004272;28;20457;-72
2021/11/16 12:29:55;;;;;;;28.83;26.90;;;9.00;77.70;;;;;;5009116;28;20456;-71
2021/11/16 12:32:25;;;;;;;30.38;28.27;;;8.90;77.50;;;;;;5006830;28;20474;-72
2021/11/16 12:34:58;;;;;;;30.67;28.55;;;9.00;77.10;;;;;;5009069;28;20202;-72
2021/11/16 12:37:42;;;;;;;30.38;27.98;;;9.10;77.10;;;;;;5006443;28;20213;-72
2021/11/16 12:40:12;;;;;;;31.00;28.90;;;9.10;76.80;;;;;;5006459;28;20214;-72
2021/11/16 12:42:40;;;;;;;29.50;27.60;;;9.00;77.10;;;;;;5006185;28;20218;-74
2021/11/16 12:45:10;;;;;;;31.33;29.37;;;8.80;77.80;;;;;;5006407;28;21044;-73
2021/11/16 12:47:57;;;;;;;30.52;28.30;;;8.80;77.70;;;;;;5009624;28;20468;-71
2021/11/16 12:50:24;;;;;;;30.83;28.73;;;9.00;77.50;;;;;;5006008;28;20281;-72
2021/11/16 12:52:54;;;;;;;29.13;27.33;;;8.90;78.70;;;;;;5005924;28;20472;-71
2021/11/16 12:55:24;;;;;;;31.70;29.67;;;8.90;78.00;;;;;;5007245;28;20194;-71
2021/11/16 12:57:53;;;;;;;31.00;28.87;;;8.90;77.90;;;;;;5015987;28;20469;-72